Time;durP1;ratioP1;P1;durP2;ratioP2;P2;SDS_P1;SDS_P2;PMS_P1;PMS_P2;Temp;Humidity;BMP_temperature;BMP_pressure;BME280_temperature;BME280_humidity;BME280_pressure;Samples;Min_cycle;Max_cycle;Signal;HPM_P1;HPM_P2
2022/03/24 00:01:40;;;;;;;21.00;15.13;;;16.30;32.50;;;;;;5046870;28;20458;-44
2022/03/24 00:04:06;;;;;;;19.20;14.73;;;16.30;32.60;;;;;;5047174;28;20204;-45
2022/03/24 00:06:32;;;;;;;20.53;14.80;;;16.20;33.20;;;;;;5047994;28;22289;-46
2022/03/24 00:08:58;;;;;;;16.53;13.20;;;16.20;32.70;;;;;;5047551;28;20451;-45
2022/03/24 00:11:23;;;;;;;14.10;12.20;;;16.20;32.70;;;;;;5048439;28;20552;-46
2022/03/24 00:13:49;;;;;;;13.70;11.67;;;16.00;32.60;;;;;;5048048;28;20226;-45
2022/03/24 00:16:19;;;;;;;14.23;12.80;;;15.90;33.80;;;;;;5048713;28;20552;-45
2022/03/24 00:18:45;;;;;;;14.37;11.37;;;15.80;34.00;;;;;;5043075;28;21282;-44
2022/03/24 00:21:11;;;;;;;13.73;11.40;;;15.80;33.60;;;;;;5045744;28;20521;-45
2022/03/24 00:23:36;;;;;;;14.10;12.27;;;15.60;34.40;;;;;;5039284;28;20940;-46
2022/03/24 00:26:03;;;;;;;12.97;11.57;;;15.60;34.10;;;;;;5038805;28;20449;-45
2022/03/24 00:28:28;;;;;;;12.80;11.43;;;15.60;34.10;;;;;;5045375;28;20660;-46
2022/03/24 00:30:54;;;;;;;13.33;10.87;;;15.50;34.60;;;;;;5048121;28;20446;-46
2022/03/24 00:33:20;;;;;;;11.17;9.83;;;15.40;34.50;;;;;;5044857;28;20498;-45
2022/03/24 00:35:45;;;;;;;16.10;11.20;;;15.30;35.00;;;;;;5044500;28;20283;-47
2022/03/24 00:38:11;;;;;;;13.10;11.73;;;15.10;35.10;;;;;;5046728;28;20189;-46
2022/03/24 00:40:36;;;;;;;12.50;11.13;;;15.10;34.90;;;;;;5047198;28;20216;-46
2022/03/24 00:43:02;;;;;;;15.23;11.90;;;15.10;35.20;;;;;;5046573;28;20185;-46
2022/03/24 00:45:29;;;;;;;14.00;12.57;;;15.20;34.50;;;;;;5046424;28;20192;-46
2022/03/24 00:47:55;;;;;;;12.93;11.47;;;15.00;34.30;;;;;;5047703;28;20243;-47
2022/03/24 00:50:20;;;;;;;13.30;12.00;;;15.00;35.10;;;;;;5046703;28;20788;-46
2022/03/24 00:52:46;;;;;;;12.90;11.20;;;15.10;34.80;;;;;;5053066;28;20243;-48
2022/03/24 00:55:18;;;;;;;13.50;11.90;;;15.20;34.10;;;;;;5047658;28;20270;-47
2022/03/24 00:57:49;;;;;;;13.07;10.87;;;15.30;34.00;;;;;;5050953;28;20200;-46
2022/03/24 01:00:16;;;;;;;13.80;11.83;;;15.30;34.10;;;;;;5057033;28;20789;-48
2022/03/24 01:02:48;;;;;;;12.70;11.40;;;15.40;34.30;;;;;;5045785;28;20577;-48
2022/03/24 01:05:15;;;;;;;14.13;12.03;;;15.20;34.30;;;;;;5048249;28;20549;-50
2022/03/24 01:07:42;;;;;;;19.13;12.07;;;15.10;34.70;;;;;;5043654;28;21060;-47
2022/03/24 01:10:09;;;;;;;12.20;10.93;;;15.10;35.00;;;;;;5050347;28;20455;-48
2022/03/24 01:12:35;;;;;;;11.93;10.73;;;14.90;35.40;;;;;;5050854;28;20486;-47
2022/03/24 01:15:04;;;;;;;15.80;11.93;;;14.90;35.40;;;;;;5052009;28;20454;-49
2022/03/24 01:17:31;;;;;;;13.30;11.90;;;14.70;35.70;;;;;;5049534;28;20447;-46
2022/03/24 01:19:57;;;;;;;11.60;10.27;;;14.60;35.70;;;;;;5049183;28;20563;-47
2022/03/24 01:22:22;;;;;;;12.27;10.93;;;14.60;35.50;;;;;;5048752;28;20558;-46
2022/03/24 01:24:49;;;;;;;12.27;11.07;;;14.60;35.90;;;;;;5048105;28;20236;-49
2022/03/24 01:27:15;;;;;;;16.17;11.17;;;14.60;35.40;;;;;;5044619;28;20954;-47
2022/03/24 01:29:41;;;;;;;12.00;10.80;;;14.70;35.50;;;;;;5047300;28;20454;-50
2022/03/24 01:32:07;;;;;;;11.73;10.53;;;14.80;34.90;;;;;;5050097;28;20530;-45
2022/03/24 01:34:38;;;;;;;15.40;12.50;;;14.90;35.50;;;;;;5045685;28;20522;-46
2022/03/24 01:37:08;;;;;;;17.47;11.67;;;15.00;34.90;;;;;;5046161;28;20474;-46
2022/03/24 01:39:34;;;;;;;14.67;12.70;;;15.00;34.30;;;;;;5049278;28;20451;-47
2022/03/24 01:42:00;;;;;;;13.47;12.07;;;15.00;34.10;;;;;;5048616;28;20508;-50
2022/03/24 01:44:27;;;;;;;15.60;11.77;;;14.90;34.00;;;;;;5050035;28;20461;-47
2022/03/24 01:47:09;;;;;;;13.10;11.67;;;14.90;33.90;;;;;;5050624;28;20461;-47
2022/03/24 01:49:40;;;;;;;13.77;11.77;;;14.80;34.10;;;;;;5057856;28;20452;-50
2022/03/24 01:52:12;;;;;;;13.07;10.83;;;14.70;34.10;;;;;;5049953;28;20451;-47
2022/03/24 01:54:40;;;;;;;13.23;11.83;;;14.70;35.10;;;;;;5046481;28;20462;-46
2022/03/24 01:57:09;;;;;;;13.37;10.00;;;14.70;35.30;;;;;;5049589;28;20446;-47
2022/03/24 01:59:38;;;;;;;12.43;11.10;;;14.40;35.30;;;;;;5049651;28;20477;-50
2022/03/24 02:02:05;;;;;;;14.63;12.40;;;14.40;36.00;;;;;;5046723;28;20975;-47
2022/03/24 02:04:32;;;;;;;15.70;11.57;;;14.40;35.50;;;;;;5047282;28;20914;-50
2022/03/24 02:06:58;;;;;;;14.03;11.60;;;14.40;34.80;;;;;;5045132;28;20569;-47
2022/03/24 02:09:24;;;;;;;13.30;11.77;;;14.50;35.60;;;;;;5050735;28;20915;-46
2022/03/24 02:11:49;;;;;;;12.43;11.00;;;14.50;35.10;;;;;;5050485;28;20188;-50
2022/03/24 02:14:15;;;;;;;17.57;12.40;;;14.50;34.60;;;;;;5048365;28;20227;-46
2022/03/24 02:16:41;;;;;;;22.37;13.37;;;14.50;34.50;;;;;;5048249;28;20266;-48
2022/03/24 02:19:11;;;;;;;13.27;11.43;;;14.40;34.40;;;;;;5047789;28;20576;-46
2022/03/24 02:21:39;;;;;;;13.20;11.90;;;14.20;34.70;;;;;;5048331;28;20457;-47
2022/03/24 02:24:05;;;;;;;12.13;10.93;;;14.00;34.90;;;;;;5046928;28;20820;-46
2022/03/24 02:26:31;;;;;;;17.10;12.10;;;13.70;35.30;;;;;;5050062;28;20450;-46
2022/03/24 02:28:57;;;;;;;15.63;12.33;;;13.60;35.70;;;;;;5048297;28;20447;-47
2022/03/24 02:31:23;;;;;;;14.47;11.83;;;13.60;36.10;;;;;;5047648;28;20247;-48
2022/03/24 02:34:37;;;;;;;14.37;11.87;;;13.50;37.20;;;;;;5048984;28;20606;-46
2022/03/24 02:36:39;;;;;;;16.73;10.97;;;13.50;37.30;;;;;;5031243;28;20458;-46
2022/03/24 02:39:06;;;;;;;14.53;11.10;;;13.40;37.10;;;;;;5047047;28;20477;-45
2022/03/24 02:41:31;;;;;;;13.40;11.10;;;13.40;37.00;;;;;;5048687;28;20447;-46
2022/03/24 02:43:58;;;;;;;12.80;10.77;;;13.30;37.10;;;;;;5049125;28;20435;-46
2022/03/24 02:46:24;;;;;;;12.77;10.93;;;13.30;37.40;;;;;;5046657;28;20197;-46
2022/03/24 02:48:50;;;;;;;14.40;10.83;;;13.20;36.80;;;;;;5047040;28;20437;-46
2022/03/24 02:51:15;;;;;;;12.40;11.10;;;13.10;36.80;;;;;;5041568;28;21442;-46
2022/03/24 02:53:41;;;;;;;19.10;11.23;;;13.10;37.40;;;;;;5040349;28;20238;-48
2022/03/24 02:56:07;;;;;;;13.00;10.70;;;12.80;37.10;;;;;;5042001;28;20192;-47
2022/03/24 02:58:32;;;;;;;12.97;10.63;;;12.60;38.10;;;;;;5047631;28;20504;-45
2022/03/24 03:00:58;;;;;;;13.47;12.07;;;12.50;39.10;;;;;;5045572;28;20708;-48
2022/03/24 03:03:24;;;;;;;12.50;11.23;;;12.60;38.70;;;;;;5042232;28;20267;-49
2022/03/24 03:05:50;;;;;;;13.33;11.07;;;12.70;38.00;;;;;;5045563;28;20201;-49
2022/03/24 03:08:15;;;;;;;12.53;10.87;;;12.70;38.30;;;;;;5045665;28;20981;-47
2022/03/24 03:10:41;;;;;;;13.43;12.00;;;12.60;38.30;;;;;;5040936;28;20526;-46
2022/03/24 03:13:08;;;;;;;12.00;10.73;;;12.50;38.60;;;;;;5044909;28;20212;-46
2022/03/24 03:15:35;;;;;;;15.20;11.90;;;12.20;38.60;;;;;;5052157;28;20196;-47
2022/03/24 03:18:02;;;;;;;14.03;11.70;;;12.20;38.70;;;;;;5044676;28;20446;-46
2022/03/24 03:20:28;;;;;;;13.00;10.73;;;12.30;38.80;;;;;;5056754;28;20442;-46
2022/03/24 03:22:55;;;;;;;14.30;11.17;;;12.30;39.00;;;;;;5051601;28;20450;-47
2022/03/24 03:25:22;;;;;;;14.70;11.37;;;12.40;39.20;;;;;;5044756;28;20443;-45
2022/03/24 03:27:48;;;;;;;14.87;10.87;;;12.30;39.20;;;;;;5052521;28;20521;-46
2022/03/24 03:30:14;;;;;;;14.53;10.73;;;12.40;38.90;;;;;;5046971;28;20447;-45
2022/03/24 03:32:41;;;;;;;12.30;10.33;;;12.50;38.30;;;;;;5045199;28;20492;-46
2022/03/24 03:35:07;;;;;;;11.77;10.30;;;12.50;37.90;;;;;;5048124;28;20276;-45
2022/03/24 03:37:34;;;;;;;14.67;11.77;;;12.50;37.70;;;;;;5048198;28;20530;-48
2022/03/24 03:39:59;;;;;;;12.70;10.83;;;12.20;39.10;;;;;;5044658;28;20883;-45
2022/03/24 03:42:25;;;;;;;11.90;10.53;;;12.20;39.00;;;;;;5045670;28;20525;-47
2022/03/24 03:44:51;;;;;;;13.63;10.60;;;12.10;39.20;;;;;;5046868;28;20196;-49
2022/03/24 03:47:17;;;;;;;14.43;11.90;;;11.50;39.70;;;;;;5054935;28;20594;-46
2022/03/24 03:49:43;;;;;;;14.17;11.17;;;11.60;40.60;;;;;;5053112;28;20189;-46
2022/03/24 03:52:09;;;;;;;14.97;11.83;;;11.30;40.70;;;;;;5053041;28;20491;-46
2022/03/24 03:54:34;;;;;;;13.80;11.37;;;11.30;41.30;;;;;;5048679;28;20249;-45
2022/03/24 03:57:00;;;;;;;16.90;12.20;;;11.50;40.60;;;;;;5047150;28;20857;-46
2022/03/24 03:59:25;;;;;;;12.17;10.37;;;11.60;40.60;;;;;;5052885;28;20196;-46
2022/03/24 04:01:53;;;;;;;14.03;10.90;;;11.60;40.70;;;;;;5056049;28;20192;-46
2022/03/24 04:04:18;;;;;;;13.50;11.80;;;11.60;40.90;;;;;;5046734;28;20208;-46
2022/03/24 04:06:45;;;;;;;14.80;10.67;;;11.70;40.30;;;;;;5044136;28;20447;-47
2022/03/24 04:09:11;;;;;;;11.77;10.17;;;11.70;39.60;;;;;;5042312;28;20189;-46
2022/03/24 04:11:37;;;;;;;14.70;11.90;;;11.80;40.00;;;;;;5046250;28;20946;-46
2022/03/24 04:14:03;;;;;;;12.90;11.40;;;11.80;39.90;;;;;;5046637;28;20232;-45
2022/03/24 04:16:29;;;;;;;15.40;11.93;;;11.90;39.70;;;;;;5047747;28;20211;-47
2022/03/24 04:18:54;;;;;;;15.03;11.43;;;11.90;40.10;;;;;;5043690;28;20447;-49
2022/03/24 04:21:20;;;;;;;13.13;10.63;;;12.00;39.70;;;;;;5045367;28;20594;-47
2022/03/24 04:23:46;;;;;;;11.53;10.10;;;12.00;39.80;;;;;;5044884;28;20237;-49
2022/03/24 04:26:12;;;;;;;14.43;11.13;;;12.10;39.50;;;;;;5047042;28;20204;-48
2022/03/24 04:28:38;;;;;;;16.37;11.63;;;12.10;39.60;;;;;;5046094;28;20193;-46
2022/03/24 04:31:04;;;;;;;14.80;11.13;;;12.10;39.20;;;;;;5060234;28;20449;-48
2022/03/24 04:33:30;;;;;;;14.27;11.00;;;12.00;39.30;;;;;;5051678;28;20486;-48
2022/03/24 04:35:58;;;;;;;11.80;10.60;;;11.90;39.90;;;;;;5052247;28;20828;-47
2022/03/24 04:38:24;;;;;;;11.80;9.63;;;12.00;39.60;;;;;;5053002;28;20466;-47
2022/03/24 04:40:49;;;;;;;14.30;11.60;;;12.00;39.40;;;;;;5050228;28;20446;-46
2022/03/24 04:43:15;;;;;;;15.30;12.00;;;12.10;39.30;;;;;;5050136;28;20450;-47
2022/03/24 04:45:41;;;;;;;13.10;11.63;;;12.20;38.50;;;;;;5056010;28;20671;-46
2022/03/24 04:48:08;;;;;;;14.70;11.30;;;12.30;38.10;;;;;;5051700;28;20227;-46
2022/03/24 04:50:34;;;;;;;13.00;11.47;;;12.30;37.80;;;;;;5043194;28;20193;-47
2022/03/24 04:52:59;;;;;;;12.50;10.93;;;12.30;38.10;;;;;;5051649;28;20493;-46
2022/03/24 04:55:25;;;;;;;16.83;12.33;;;12.20;38.50;;;;;;5049609;28;20250;-48
2022/03/24 04:57:51;;;;;;;17.00;11.47;;;12.10;38.60;;;;;;5043834;28;20240;-50
2022/03/24 05:00:18;;;;;;;13.77;10.60;;;12.20;38.40;;;;;;5044929;28;20924;-45
2022/03/24 05:02:44;;;;;;;13.20;11.67;;;12.10;38.00;;;;;;5050917;28;20197;-46
2022/03/24 05:05:10;;;;;;;15.23;11.40;;;12.10;38.00;;;;;;5045645;28;20427;-46
2022/03/24 05:07:36;;;;;;;17.17;11.37;;;12.00;37.80;;;;;;5050542;28;20530;-46
2022/03/24 05:10:03;;;;;;;12.67;10.87;;;12.00;37.90;;;;;;5046633;28;20200;-45
2022/03/24 05:12:30;;;;;;;13.40;11.20;;;12.00;38.10;;;;;;5049537;28;21862;-46
2022/03/24 05:14:56;;;;;;;14.30;11.97;;;11.90;38.10;;;;;;5049729;28;20438;-45
2022/03/24 05:17:22;;;;;;;15.87;11.27;;;11.90;38.30;;;;;;5049456;28;20447;-48
2022/03/24 05:19:48;;;;;;;14.70;11.00;;;11.90;38.20;;;;;;5053054;28;20227;-46
2022/03/24 05:22:15;;;;;;;16.97;11.07;;;11.80;39.50;;;;;;5056136;28;20482;-46
2022/03/24 05:24:41;;;;;;;14.33;12.60;;;11.80;38.90;;;;;;5050004;28;22637;-48
2022/03/24 05:27:08;;;;;;;13.43;11.03;;;11.80;39.20;;;;;;5051174;28;20522;-45
2022/03/24 05:29:34;;;;;;;16.93;13.20;;;11.70;39.60;;;;;;5057382;28;20441;-49
2022/03/24 05:31:59;;;;;;;15.47;12.20;;;11.40;39.30;;;;;;5050181;28;20443;-46
2022/03/24 05:34:25;;;;;;;15.97;11.57;;;10.60;40.60;;;;;;5049922;28;20490;-50
2022/03/24 05:36:51;;;;;;;15.40;12.67;;;10.30;41.60;;;;;;5050969;28;20241;-46
2022/03/24 05:39:17;;;;;;;17.20;12.00;;;10.10;41.90;;;;;;5051148;28;20193;-46
2022/03/24 05:41:43;;;;;;;15.83;12.90;;;10.10;42.10;;;;;;5054837;28;21070;-47
2022/03/24 05:44:09;;;;;;;17.60;12.17;;;10.10;42.10;;;;;;5048056;28;20442;-46
2022/03/24 05:46:45;;;;;;;16.67;12.63;;;10.10;42.10;;;;;;5045241;28;20494;-46
2022/03/24 05:49:14;;;;;;;13.90;11.20;;;10.10;42.00;;;;;;5041949;28;20200;-48
2022/03/24 05:51:42;;;;;;;14.90;11.30;;;9.90;43.20;;;;;;5046726;28;20463;-45
2022/03/24 05:54:08;;;;;;;16.20;12.53;;;9.90;43.30;;;;;;5051243;28;20532;-46
2022/03/24 05:56:34;;;;;;;25.37;12.00;;;10.00;42.40;;;;;;5051347;28;20500;-47
2022/03/24 05:59:00;;;;;;;15.60;11.23;;;9.80;43.50;;;;;;5050312;28;20950;-46
2022/03/24 06:01:26;;;;;;;14.93;11.30;;;10.00;44.20;;;;;;5044965;28;20258;-45
2022/03/24 06:03:52;;;;;;;16.00;11.10;;;10.30;43.80;;;;;;5046908;28;20251;-46
2022/03/24 06:06:19;;;;;;;15.20;11.03;;;10.60;43.30;;;;;;5056309;28;20204;-45
2022/03/24 06:08:45;;;;;;;17.93;12.00;;;10.90;42.60;;;;;;5049415;28;20470;-45
2022/03/24 06:11:12;;;;;;;21.43;11.37;;;11.10;42.00;;;;;;5047488;28;20439;-47
2022/03/24 06:13:42;;;;;;;14.17;11.90;;;11.20;41.40;;;;;;5044481;28;20478;-45
2022/03/24 06:16:08;;;;;;;16.90;11.40;;;11.40;41.20;;;;;;5049246;28;20454;-48
2022/03/24 06:18:36;;;;;;;17.40;11.60;;;11.50;40.20;;;;;;5050599;28;20504;-49
2022/03/24 06:21:04;;;;;;;14.47;12.00;;;11.70;40.30;;;;;;5049690;28;20443;-49
2022/03/24 06:23:30;;;;;;;16.10;12.10;;;11.80;39.90;;;;;;5049675;28;20470;-49
2022/03/24 06:25:56;;;;;;;16.03;11.90;;;11.90;39.70;;;;;;5049390;28;20434;-49
2022/03/24 06:28:22;;;;;;;17.83;11.93;;;11.40;39.80;;;;;;5049955;28;20431;-48
2022/03/24 06:30:48;;;;;;;13.33;11.67;;;11.20;40.80;;;;;;5049240;28;20232;-48
2022/03/24 06:33:16;;;;;;;16.37;12.33;;;11.50;40.80;;;;;;5049932;28;20278;-46
2022/03/24 06:35:43;;;;;;;16.20;12.10;;;11.80;40.20;;;;;;5048253;28;20836;-48
2022/03/24 06:38:09;;;;;;;17.00;12.57;;;11.80;40.00;;;;;;5049517;28;20435;-46
2022/03/24 06:40:34;;;;;;;15.10;12.07;;;12.00;39.60;;;;;;5052419;28;20458;-46
2022/03/24 06:43:00;;;;;;;16.67;13.10;;;12.20;39.30;;;;;;5050136;28;20536;-47
2022/03/24 06:45:26;;;;;;;12.23;10.83;;;12.20;39.20;;;;;;5048825;28;20680;-47
2022/03/24 06:47:53;;;;;;;14.27;12.57;;;12.40;39.20;;;;;;5050271;28;20324;-47
2022/03/24 06:50:18;;;;;;;16.20;12.20;;;12.60;38.80;;;;;;5046229;28;20427;-47
2022/03/24 06:52:44;;;;;;;20.13;11.90;;;12.70;38.60;;;;;;5048601;28;20522;-50
2022/03/24 06:55:14;;;;;;;13.37;11.63;;;12.90;38.40;;;;;;5048161;28;20648;-46
2022/03/24 06:57:41;;;;;;;15.63;13.10;;;13.00;38.10;;;;;;5049337;28;20235;-49
2022/03/24 07:00:08;;;;;;;16.40;12.20;;;13.10;37.70;;;;;;5048995;28;20837;-49
2022/03/24 07:02:34;;;;;;;15.37;11.70;;;12.80;38.30;;;;;;5051779;28;20489;-46
2022/03/24 07:05:00;;;;;;;13.60;12.20;;;12.50;38.50;;;;;;5049022;28;20830;-50
2022/03/24 07:07:27;;;;;;;16.07;13.00;;;12.70;38.70;;;;;;5053945;28;20189;-47
2022/03/24 07:09:53;;;;;;;17.77;13.03;;;12.80;38.70;;;;;;5050563;28;20977;-46
2022/03/24 07:12:22;;;;;;;16.30;12.80;;;12.80;38.10;;;;;;5049480;28;20471;-46
2022/03/24 07:14:48;;;;;;;16.10;12.93;;;12.60;38.70;;;;;;5049427;28;20607;-47
2022/03/24 07:17:14;;;;;;;13.30;11.90;;;12.90;38.30;;;;;;5050387;28;20439;-47
2022/03/24 07:19:40;;;;;;;14.23;12.20;;;12.90;38.40;;;;;;5048926;28;20207;-46
2022/03/24 07:22:06;;;;;;;17.70;13.53;;;13.30;38.00;;;;;;5049751;28;20748;-46
2022/03/24 07:24:32;;;;;;;17.30;12.80;;;13.70;37.40;;;;;;5049547;28;20315;-46
2022/03/24 07:26:58;;;;;;;17.10;13.13;;;14.10;37.10;;;;;;5048654;28;20196;-46
2022/03/24 07:29:24;;;;;;;24.33;13.57;;;14.40;36.40;;;;;;5049599;28;20443;-48
2022/03/24 07:31:50;;;;;;;16.13;12.87;;;14.70;36.20;;;;;;5049357;28;20196;-46
2022/03/24 07:34:16;;;;;;;16.77;14.37;;;14.70;35.60;;;;;;5048835;28;20920;-45
2022/03/24 07:36:43;;;;;;;14.40;12.40;;;14.90;35.60;;;;;;5049813;28;20678;-49
2022/03/24 07:39:09;;;;;;;19.17;14.40;;;15.10;35.30;;;;;;5049292;28;20866;-46
2022/03/24 07:41:36;;;;;;;16.33;13.43;;;15.30;34.90;;;;;;5049582;28;20501;-47
2022/03/24 07:44:01;;;;;;;16.37;13.33;;;15.50;34.30;;;;;;5049303;28;20446;-46
2022/03/24 07:46:27;;;;;;;19.60;14.53;;;15.80;33.80;;;;;;5050111;28;20424;-47
2022/03/24 07:48:53;;;;;;;21.17;15.10;;;15.90;33.50;;;;;;5048971;28;20446;-46
2022/03/24 07:51:20;;;;;;;17.20;14.97;;;16.10;33.50;;;;;;5049825;28;20201;-48
2022/03/24 07:53:48;;;;;;;19.57;14.90;;;16.30;33.50;;;;;;5048781;28;20683;-44
2022/03/24 07:56:18;;;;;;;19.10;15.23;;;16.50;33.30;;;;;;5048214;28;21093;-44
2022/03/24 07:58:44;;;;;;;15.97;14.37;;;16.60;33.10;;;;;;5049044;28;20906;-45
2022/03/24 08:01:13;;;;;;;20.20;15.17;;;16.80;33.00;;;;;;5049942;28;20466;-47
2022/03/24 08:03:39;;;;;;;21.27;14.90;;;16.80;32.10;;;;;;5048552;28;20201;-45
2022/03/24 08:06:06;;;;;;;17.97;15.67;;;16.80;32.10;;;;;;5053365;28;20467;-45
2022/03/24 08:08:31;;;;;;;19.50;14.27;;;16.80;32.20;;;;;;5053417;28;20487;-44
2022/03/24 08:10:58;;;;;;;16.97;14.70;;;16.90;32.60;;;;;;5053033;28;20220;-44
2022/03/24 08:13:24;;;;;;;20.23;15.40;;;16.80;32.20;;;;;;5052747;28;20702;-44
2022/03/24 08:15:50;;;;;;;19.27;12.90;;;16.80;32.30;;;;;;5053050;28;20435;-45
2022/03/24 08:18:17;;;;;;;19.67;15.47;;;17.00;32.20;;;;;;5051585;28;20196;-45
2022/03/24 08:20:47;;;;;;;17.03;14.23;;;17.10;32.30;;;;;;5052629;28;20777;-46
2022/03/24 08:23:13;;;;;;;21.40;15.30;;;17.10;32.30;;;;;;5050944;28;20505;-45
2022/03/24 08:25:40;;;;;;;22.23;15.37;;;17.20;32.60;;;;;;5052879;28;20806;-45
2022/03/24 08:28:06;;;;;;;21.77;15.70;;;17.30;31.90;;;;;;5052760;28;20501;-44
2022/03/24 08:30:32;;;;;;;18.43;15.00;;;17.30;31.90;;;;;;5052515;28;20512;-44
2022/03/24 08:32:58;;;;;;;20.63;15.90;;;17.30;32.10;;;;;;5052902;28;20977;-48
2022/03/24 08:35:24;;;;;;;25.33;15.50;;;17.30;32.40;;;;;;5052799;28;20189;-44
2022/03/24 08:37:50;;;;;;;21.83;16.40;;;17.40;32.50;;;;;;5053338;28;20192;-46
2022/03/24 08:40:15;;;;;;;20.43;16.30;;;17.50;31.60;;;;;;5052347;28;20826;-47
2022/03/24 08:42:42;;;;;;;18.00;15.77;;;17.60;31.80;;;;;;5052939;28;20279;-46
2022/03/24 08:45:11;;;;;;;22.40;15.83;;;17.70;32.50;;;;;;5052186;28;20200;-45
2022/03/24 08:47:37;;;;;;;19.97;15.67;;;17.90;31.80;;;;;;5053279;28;20449;-46
2022/03/24 08:50:08;;;;;;;23.30;16.70;;;18.00;31.70;;;;;;5050864;28;20488;-47
2022/03/24 08:52:35;;;;;;;19.10;15.97;;;18.10;30.80;;;;;;5052920;28;20841;-46
2022/03/24 08:55:01;;;;;;;22.20;16.07;;;18.20;30.40;;;;;;5052406;28;20869;-44
2022/03/24 08:57:27;;;;;;;21.93;15.30;;;18.30;30.10;;;;;;5050187;28;20433;-45
2022/03/24 08:59:54;;;;;;;18.97;16.00;;;18.50;30.10;;;;;;5050331;28;20803;-45
2022/03/24 09:02:20;;;;;;;22.77;16.63;;;18.60;30.60;;;;;;5050894;28;20193;-44
2022/03/24 09:04:47;;;;;;;21.90;17.27;;;18.70;29.90;;;;;;5051170;28;20446;-47
2022/03/24 09:07:13;;;;;;;20.37;16.00;;;18.80;30.60;;;;;;5051088;28;21153;-45
2022/03/24 09:09:40;;;;;;;19.97;17.50;;;18.90;29.70;;;;;;5049692;28;20507;-44
2022/03/24 09:12:06;;;;;;;21.50;17.10;;;19.00;30.10;;;;;;5051612;28;20192;-44
2022/03/24 09:14:32;;;;;;;20.57;17.30;;;19.10;29.50;;;;;;5052944;28;20510;-45
2022/03/24 09:16:57;;;;;;;24.37;18.63;;;19.30;29.40;;;;;;5053659;28;20453;-44
2022/03/24 09:19:23;;;;;;;26.50;19.43;;;19.40;29.40;;;;;;5048930;28;20239;-45
2022/03/24 09:21:49;;;;;;;19.90;17.63;;;19.50;29.80;;;;;;5050791;28;20189;-46
2022/03/24 09:24:14;;;;;;;21.73;16.73;;;19.60;29.60;;;;;;5048691;28;20248;-44
2022/03/24 09:26:40;;;;;;;23.47;17.17;;;19.70;29.30;;;;;;5049645;28;20188;-45
2022/03/24 09:29:06;;;;;;;20.37;17.50;;;19.90;29.70;;;;;;5049066;28;20502;-45
2022/03/24 09:31:31;;;;;;;21.77;17.70;;;20.10;29.40;;;;;;5048711;28;20193;-44
2022/03/24 09:33:57;;;;;;;22.80;17.47;;;20.20;29.00;;;;;;5048791;28;20319;-44
2022/03/24 09:36:23;;;;;;;23.00;19.50;;;20.20;29.30;;;;;;5050130;28;20201;-45
2022/03/24 09:38:49;;;;;;;25.27;17.97;;;20.30;29.30;;;;;;5050922;28;20199;-46
2022/03/24 09:41:18;;;;;;;22.10;18.20;;;20.50;28.60;;;;;;5051392;28;20287;-45
2022/03/24 09:43:45;;;;;;;26.03;18.57;;;20.60;28.70;;;;;;5049142;28;20477;-44
2022/03/24 09:46:11;;;;;;;22.10;15.00;;;20.60;28.80;;;;;;5049759;28;20439;-46
2022/03/24 09:48:37;;;;;;;16.00;13.60;;;20.80;28.60;;;;;;5050785;28;20470;-44
2022/03/24 09:51:02;;;;;;;18.07;15.63;;;21.00;28.60;;;;;;5050153;28;20462;-44
2022/03/24 09:53:28;;;;;;;18.33;16.33;;;21.30;28.90;;;;;;5050398;28;20228;-43
2022/03/24 09:55:55;;;;;;;20.80;17.80;;;21.60;26.90;;;;;;5051747;28;20199;-44
2022/03/24 09:58:25;;;;;;;19.80;17.40;;;21.60;26.30;;;;;;5048333;28;20207;-44
2022/03/24 10:00:51;;;;;;;21.47;16.83;;;21.80;26.70;;;;;;5049882;28;20442;-43
2022/03/24 10:03:21;;;;;;;20.07;18.07;;;22.00;27.20;;;;;;5042506;28;20450;-45
2022/03/24 10:05:55;;;;;;;18.23;16.30;;;22.30;26.80;;;;;;5046496;28;20197;-44
2022/03/24 10:08:21;;;;;;;19.57;17.60;;;22.50;26.70;;;;;;5048684;28;20452;-44
2022/03/24 10:10:47;;;;;;;22.10;18.03;;;22.70;25.40;;;;;;5049357;28;20435;-45
2022/03/24 10:13:14;;;;;;;19.43;17.43;;;22.80;25.00;;;;;;5049307;28;21320;-45
2022/03/24 10:15:39;;;;;;;21.83;18.00;;;22.90;24.90;;;;;;5047269;28;20216;-46
2022/03/24 10:18:14;;;;;;;20.80;15.70;;;23.00;25.20;;;;;;5049777;28;20466;-45
2022/03/24 10:20:40;;;;;;;22.23;19.10;;;23.30;25.60;;;;;;5046258;28;20192;-44
2022/03/24 10:23:06;;;;;;;21.80;17.30;;;23.50;24.50;;;;;;5044748;28;21009;-44
2022/03/24 10:25:39;;;;;;;19.03;15.90;;;23.70;24.20;;;;;;5033088;28;20197;-46
2022/03/24 10:28:11;;;;;;;21.77;19.23;;;23.90;24.60;;;;;;5025630;28;20448;-48
2022/03/24 10:30:54;;;;;;;22.30;19.90;;;24.10;24.20;;;;;;5022650;28;20528;-47
2022/03/24 10:33:33;;;;;;;19.23;16.13;;;24.10;23.20;;;;;;5025656;28;20494;-44
2022/03/24 10:36:08;;;;;;;19.70;17.70;;;24.10;24.70;;;;;;5028057;28;20497;-45
2022/03/24 10:38:36;;;;;;;18.37;16.50;;;24.30;24.60;;;;;;5028791;28;20451;-45
2022/03/24 10:41:17;;;;;;;22.00;18.50;;;24.60;23.30;;;;;;5028421;28;20451;-46
2022/03/24 10:43:43;;;;;;;22.27;18.97;;;24.60;23.60;;;;;;5022897;28;20471;-47
2022/03/24 10:46:14;;;;;;;20.60;18.40;;;24.50;23.40;;;;;;5030189;28;20507;-47
2022/03/24 10:48:40;;;;;;;22.40;19.53;;;24.50;22.70;;;;;;5028987;28;20482;-45
2022/03/24 10:51:06;;;;;;;19.87;17.70;;;24.60;23.60;;;;;;5027615;28;20927;-46
2022/03/24 10:53:43;;;;;;;19.57;17.50;;;24.70;24.80;;;;;;5029740;28;20327;-45
2022/03/24 10:56:29;;;;;;;19.43;17.23;;;24.90;23.70;;;;;;5023263;28;20507;-44
2022/03/24 10:59:02;;;;;;;20.77;18.60;;;25.10;22.80;;;;;;5020045;28;20498;-45
2022/03/24 11:01:29;;;;;;;20.37;18.27;;;25.10;22.90;;;;;;5035568;28;20427;-49
2022/03/24 11:03:56;;;;;;;21.83;19.23;;;25.30;23.10;;;;;;5027439;28;20541;-45
2022/03/24 11:06:27;;;;;;;23.93;21.47;;;25.30;22.50;;;;;;5040437;28;20490;-45
2022/03/24 11:08:59;;;;;;;22.37;19.83;;;25.40;22.70;;;;;;5035755;28;20444;-44
2022/03/24 11:11:25;;;;;;;21.40;19.00;;;25.30;22.40;;;;;;5019361;28;20436;-44
2022/03/24 11:13:56;;;;;;;18.97;17.17;;;25.40;22.30;;;;;;5027194;28;20484;-44
2022/03/24 11:16:27;;;;;;;20.97;18.80;;;25.50;23.40;;;;;;5029605;28;20556;-44
2022/03/24 11:18:55;;;;;;;18.10;16.30;;;25.50;21.90;;;;;;5031932;28;20488;-44
2022/03/24 11:21:39;;;;;;;19.00;17.20;;;25.70;21.10;;;;;;5029574;28;20454;-48
2022/03/24 11:24:05;;;;;;;18.37;16.50;;;25.80;21.70;;;;;;5039659;28;20489;-47
2022/03/24 11:26:35;;;;;;;18.93;16.90;;;25.80;21.10;;;;;;5048749;28;20453;-49
2022/03/24 11:29:01;;;;;;;17.40;15.60;;;25.90;21.50;;;;;;5048301;28;20557;-44
2022/03/24 11:31:28;;;;;;;17.63;16.03;;;26.20;21.20;;;;;;5045996;28;20796;-45
2022/03/24 11:34:00;;;;;;;17.07;15.30;;;26.50;20.00;;;;;;5047790;28;20487;-47
2022/03/24 11:36:28;;;;;;;16.33;13.30;;;26.50;20.30;;;;;;5048560;28;20458;-47
2022/03/24 11:38:56;;;;;;;14.77;13.13;;;26.70;20.20;;;;;;5046848;28;20435;-45
2022/03/24 11:41:48;;;;;;;17.37;15.67;;;26.90;20.30;;;;;;5045962;28;20454;-47
2022/03/24 11:44:18;;;;;;;16.33;14.83;;;27.10;20.90;;;;;;5047747;28;20505;-45
2022/03/24 11:46:55;;;;;;;15.17;13.83;;;27.20;18.90;;;;;;5049139;28;20496;-49
2022/03/24 11:49:28;;;;;;;16.40;14.70;;;27.30;19.70;;;;;;5047921;28;20503;-44
2022/03/24 11:51:56;;;;;;;12.77;11.57;;;27.40;18.90;;;;;;5044338;28;20439;-47
2022/03/24 11:54:26;;;;;;;17.80;15.90;;;27.50;20.40;;;;;;5046290;28;20522;-44
2022/03/24 11:57:24;;;;;;;15.67;14.27;;;27.60;19.70;;;;;;5047472;28;21149;-44
2022/03/24 12:00:10;;;;;;;13.30;12.10;;;27.60;19.30;;;;;;5048280;28;20471;-48
2022/03/24 12:02:36;;;;;;;14.97;13.60;;;27.60;20.60;;;;;;5045328;28;20442;-45
2022/03/24 12:05:02;;;;;;;13.97;12.60;;;27.90;20.00;;;;;;5047768;28;20435;-45
2022/03/24 12:07:29;;;;;;;14.60;13.20;;;28.00;20.40;;;;;;5049316;28;20228;-48
2022/03/24 12:09:58;;;;;;;15.13;13.53;;;28.20;20.00;;;;;;5046740;28;20192;-44
2022/03/24 12:12:24;;;;;;;16.00;14.60;;;28.40;20.00;;;;;;5046160;28;20500;-46
2022/03/24 12:14:53;;;;;;;16.53;15.03;;;28.40;18.90;;;;;;5042331;28;20450;-44
2022/03/24 12:17:30;;;;;;;16.77;15.20;;;28.50;18.80;;;;;;5043400;28;21212;-46
2022/03/24 12:19:57;;;;;;;17.07;15.50;;;28.50;19.00;;;;;;5046230;28;20534;-45
2022/03/24 12:22:26;;;;;;;17.33;15.53;;;28.60;19.00;;;;;;5051859;28;20438;-44
2022/03/24 12:24:53;;;;;;;15.00;13.70;;;28.40;19.00;;;;;;5059278;28;20470;-45
2022/03/24 12:27:19;;;;;;;15.53;14.07;;;28.20;20.10;;;;;;5054144;28;20435;-44
2022/03/24 12:30:09;;;;;;;15.20;13.63;;;28.40;20.40;;;;;;5053221;28;20494;-46